Cincinnati, Ohio
Traffic Map
Current Weather Conditions
Cincinnati, Ohio
Scattered Clouds
Scattered Clouds
61°
Feels Like: 61°
Wind Chill: 61° Ceiling: Unl
Heat Index: 61° Visibility: 10mi
Dew Point: 58° Wind: 9mph
Humidity: 90% Direction: 200° (SSW)
Pressure: 29.83in Gusts: 0mph
Raw Report DataKLUK 231412Z 20008KT 10SM SCT060 16/14 A2983 RMK AO2 T01610144
Traffic Incident Summary
Active as of:
Severity:
Category:
InformationThere was an issue retrieving the traffic information for this location. Please try a different location or try again shortly.
Advertisements
Track Severe Weather on mobile